Leviticus — WDC2712 — position and weather

sailwx.info

Track history (hours):
 
Tides and Currents Weather Stations Pressure Air Temp Water Temp Dewpoint Dewpoint Depression Visibility Wind Speed Wind Dir Waves Ship Positions

Leviticus

Owner: Kirby Inland Marine, LP, Houston, TX. More information available from US FCC via Universal Licensing System and Coast Guard Vessel Documentation Center.

Last reported at 2016-Apr-29 21:33 UTC. Time now 2016-May-06 11:12 UTC.
Position N 32°35' W 091°07'.

Length 12 m.

Type: Other ship. MMSI: 366996690.

Date/timePositionNaut miles runAvg speedWind from/ knotsBaromVisibWave heightAir tempDewpointWater temp
2016-Apr-29 21:33N 32°35' W 091°07'5 4.0
2016-Apr-29 20:15N 32°30' W 091°07'3 4.3
2016-Apr-29 19:33N 32°27' W 091°05'4 4.4
2016-Apr-29 18:34N 32°25' W 091°01'3 3.0
2016-Apr-29 17:33N 32°22' W 091°00'3 2.6
2016-Apr-29 16:34N 32°21' W 090°58'3 3.4
2016-Apr-29 15:34N 32°19' W 090°55'1 1.3
2016-Apr-29 14:34N 32°18' W 090°56'0 0.0
2016-Apr-29 13:34N 32°18' W 090°56'0 0.0
2016-Apr-29 12:34N 32°18' W 090°56'0 0.0
2016-Apr-29 11:33N 32°18' W 090°56'0 0.0
2016-Apr-29 10:34N 32°18' W 090°56'1 1.2
2016-Apr-29 09:34N 32°17' W 090°57'4 3.9
2016-Apr-29 08:34N 32°14' W 090°59'4 4.2
2016-Apr-29 07:34N 32°10' W 091°00'3 3.3
2016-Apr-29 06:33N 32°08' W 091°03'5 2.3
2016-Apr-29 04:27N 32°03' W 091°03'  
2016-Apr-25 13:30N 31°50' W 091°21'9 6.5
2016-Apr-25 12:06N 31°54' W 091°12'11 6.5
2016-Apr-25 10:22N 32°03' W 091°03'5 6.6
2016-Apr-25 09:33N 32°08' W 091°06'6 5.7
2016-Apr-25 08:33N 32°10' W 091°00'7 7.2
2016-Apr-25 07:33N 32°17' W 090°57'4 4.1
2016-Apr-25 06:33N 32°21' W 090°58'6 5.6
2016-Apr-25 05:33N 32°26' W 091°01'9 6.0
2016-Apr-25 04:06N 32°33' W 091°06'4 7.1
2016-Apr-25 03:32N 32°36' W 091°09'  
Track history (hours):
 
Tides and Currents Weather Stations Pressure Air Temp Water Temp Dewpoint Dewpoint Depression Visibility Wind Speed Wind Dir Waves Ship Positions

Leviticus

Owner: Kirby Inland Marine, LP, Houston, TX. More information available from US FCC via Universal Licensing System and Coast Guard Vessel Documentation Center.

Last reported at 2016-Apr-29 21:33 UTC. Time now 2016-May-06 11:12 UTC.
Position N 32°35' W 091°07'.

Length 12 m.

Type: Other ship. MMSI: 366996690.

Date/timePositionNaut miles runAvg speedWind from/ knotsBaromVisibWave heightAir tempDewpointWater temp
2016-Apr-29 21:33N 32°35' W 091°07'5 4.0
2016-Apr-29 20:15N 32°30' W 091°07'3 4.3
2016-Apr-29 19:33N 32°27' W 091°05'4 4.4
2016-Apr-29 18:34N 32°25' W 091°01'3 3.0
2016-Apr-29 17:33N 32°22' W 091°00'3 2.6
2016-Apr-29 16:34N 32°21' W 090°58'3 3.4
2016-Apr-29 15:34N 32°19' W 090°55'1 1.3
2016-Apr-29 14:34N 32°18' W 090°56'0 0.0
2016-Apr-29 13:34N 32°18' W 090°56'0 0.0
2016-Apr-29 12:34N 32°18' W 090°56'0 0.0
2016-Apr-29 11:33N 32°18' W 090°56'0 0.0
2016-Apr-29 10:34N 32°18' W 090°56'1 1.2
2016-Apr-29 09:34N 32°17' W 090°57'4 3.9
2016-Apr-29 08:34N 32°14' W 090°59'4 4.2
2016-Apr-29 07:34N 32°10' W 091°00'3 3.3
2016-Apr-29 06:33N 32°08' W 091°03'5 2.3
2016-Apr-29 04:27N 32°03' W 091°03'  
2016-Apr-25 13:30N 31°50' W 091°21'9 6.5
2016-Apr-25 12:06N 31°54' W 091°12'11 6.5
2016-Apr-25 10:22N 32°03' W 091°03'5 6.6
2016-Apr-25 09:33N 32°08' W 091°06'6 5.7
2016-Apr-25 08:33N 32°10' W 091°00'7 7.2
2016-Apr-25 07:33N 32°17' W 090°57'4 4.1
2016-Apr-25 06:33N 32°21' W 090°58'6 5.6
2016-Apr-25 05:33N 32°26' W 091°01'9 6.0
2016-Apr-25 04:06N 32°33' W 091°06'4 7.1
2016-Apr-25 03:32N 32°36' W 091°09'  

Dump ship's entire track history